Time;durP1;ratioP1;P1;durP2;ratioP2;P2;SDS_P1;SDS_P2;PMS_P1;PMS_P2;Temp;Humidity;BMP_temperature;BMP_pressure;BME280_temperature;BME280_humidity;BME280_pressure;Samples;Min_cycle;Max_cycle;Signal;HPM_P1;HPM_P2
2024/02/24 00:01:04;;;;;;;10.20;7.13;;;;;;;10.09;90.95;99394.92;1474313;88;22358;-78
2024/02/24 00:03:31;;;;;;;15.93;6.87;;;;;;;10.10;90.89;99398.73;1474379;88;21286;-77
2024/02/24 00:05:58;;;;;;;12.63;8.13;;;;;;;10.08;91.09;99396.75;1473859;87;21853;-78
2024/02/24 00:08:25;;;;;;;13.60;7.67;;;;;;;10.07;91.44;99403.52;1474488;87;21382;-78
2024/02/24 00:10:53;;;;;;;15.23;8.67;;;;;;;10.06;91.36;99396.09;1481192;87;21316;-77
2024/02/24 00:13:20;;;;;;;12.47;6.93;;;;;;;10.07;91.28;99402.20;1479021;87;21397;-77
2024/02/24 00:15:47;;;;;;;12.40;6.53;;;;;;;10.04;91.92;99397.25;1470732;87;21338;-78
2024/02/24 00:18:14;;;;;;;11.37;7.33;;;;;;;10.02;91.98;99405.86;1477710;88;21382;-78
2024/02/24 00:20:41;;;;;;;11.23;8.07;;;;;;;10.00;91.72;99401.23;1476482;88;21286;-77
2024/02/24 00:23:08;;;;;;;11.77;6.67;;;;;;;10.00;91.68;99394.62;1471550;87;22210;-78
2024/02/24 00:25:35;;;;;;;15.33;8.73;;;;;;;9.97;92.02;99390.50;1475449;88;22321;-78
2024/02/24 00:28:03;;;;;;;13.30;7.10;;;;;;;9.96;91.44;99388.04;1472761;88;21375;-78
2024/02/24 00:30:30;;;;;;;10.43;6.97;;;;;;;9.96;91.33;99384.08;1469548;87;21500;-77
2024/02/24 00:32:57;;;;;;;11.43;7.07;;;;;;;9.94;90.96;99386.38;1471029;87;21795;-78
2024/02/24 00:35:28;;;;;;;11.37;8.07;;;;;;;9.96;90.93;99384.08;1471617;87;21449;-78
2024/02/24 00:37:53;;;;;;;10.43;7.13;;;;;;;9.96;90.64;99392.01;1471960;87;21448;-78
2024/02/24 00:40:20;;;;;;;9.73;6.93;;;;;;;9.94;90.64;99389.02;1475322;88;21397;-78
2024/02/24 00:42:47;;;;;;;10.43;6.90;;;;;;;9.92;90.39;99385.70;1473438;87;21928;-78
2024/02/24 00:45:14;;;;;;;12.50;6.47;;;;;;;9.93;90.42;99384.73;1474209;88;21323;-78
2024/02/24 00:47:41;;;;;;;10.50;6.73;;;;;;;9.91;90.19;99382.75;1476347;87;21449;-78
2024/02/24 00:50:10;;;;;;;10.67;7.43;;;;;;;9.93;89.76;99380.77;1477427;88;22381;-79
2024/02/24 00:52:40;;;;;;;9.87;6.37;;;;;;;9.91;89.93;99381.42;1472950;87;21597;-82
2024/02/24 00:55:07;;;;;;;9.73;6.80;;;;;;;9.93;89.62;99379.95;1490080;88;21505;-79
2024/02/24 00:57:34;;;;;;;10.17;6.60;;;;;;;9.93;88.96;99382.09;1478665;88;22417;-79
2024/02/24 01:00:02;;;;;;;11.00;6.67;;;;;;;9.97;88.95;99382.57;1464094;88;21456;-79
2024/02/24 01:02:29;;;;;;;14.53;6.20;;;;;;;9.98;88.75;99382.06;1471586;87;21346;-78
2024/02/24 01:04:56;;;;;;;13.17;6.87;;;;;;;9.99;87.73;99386.38;1470012;87;21390;-78
2024/02/24 01:07:23;;;;;;;11.17;6.30;;;;;;;10.01;88.00;99379.08;1473944;87;21404;-78
2024/02/24 01:09:50;;;;;;;10.43;6.47;;;;;;;10.03;87.98;99375.78;1474263;88;21398;-78
2024/02/24 01:12:18;;;;;;;12.63;7.93;;;;;;;10.03;87.95;99375.28;1470451;88;22300;-78
2024/02/24 01:14:45;;;;;;;11.00;6.53;;;;;;;10.04;87.50;99372.13;1469410;87;21545;-78
2024/02/24 01:17:13;;;;;;;10.40;7.27;;;;;;;10.03;86.62;99363.89;1473483;87;21323;-76
2024/02/24 01:19:41;;;;;;;11.97;6.40;;;;;;;10.01;86.51;99361.90;1475238;87;21464;-78
2024/02/24 01:22:08;;;;;;;14.13;6.70;;;;;;;9.98;86.42;99360.42;1467640;88;22494;-78
2024/02/24 01:24:35;;;;;;;10.70;7.10;;;;;;;9.97;86.00;99354.00;1476294;87;21537;-77
2024/02/24 01:27:02;;;;;;;9.30;6.60;;;;;;;9.96;85.92;99345.75;1475815;87;21398;-78
2024/02/24 01:29:29;;;;;;;10.73;6.20;;;;;;;9.95;85.99;99350.19;1477879;87;22364;-79
2024/02/24 01:31:59;;;;;;;11.93;6.30;;;;;;;9.94;85.78;99353.33;1476503;87;21331;-79
2024/02/24 01:34:25;;;;;;;12.13;6.60;;;;;;;9.92;85.88;99355.81;1478511;88;21353;-79
2024/02/24 01:36:53;;;;;;;8.93;5.63;;;;;;;9.90;85.81;99344.11;1475072;87;21456;-79
2024/02/24 01:39:21;;;;;;;9.13;6.20;;;;;;;9.89;85.70;99350.87;1472467;87;22306;-79
2024/02/24 01:41:48;;;;;;;10.93;7.23;;;;;;;9.86;86.04;99345.42;1474423;88;21470;-79
2024/02/24 01:44:18;;;;;;;10.03;6.20;;;;;;;9.86;86.23;99346.74;1477335;88;21837;-79
2024/02/24 01:46:48;;;;;;;11.43;7.27;;;;;;;9.84;85.72;99339.50;1474656;87;21375;-80
2024/02/24 01:49:16;;;;;;;9.70;6.13;;;;;;;9.84;85.57;99335.53;1471719;88;22469;-80
2024/02/24 01:51:45;;;;;;;10.60;6.20;;;;;;;9.86;85.00;99335.35;1472939;87;22243;-80
2024/02/24 01:54:13;;;;;;;10.73;6.27;;;;;;;9.85;84.72;99334.53;1448947;88;22269;-80
2024/02/24 01:56:41;;;;;;;10.83;6.23;;;;;;;9.87;84.72;99337.84;1463171;88;21412;-80
2024/02/24 01:59:10;;;;;;;9.40;6.20;;;;;;;9.88;84.75;99331.55;1470889;87;21390;-79
2024/02/24 02:01:37;;;;;;;11.73;5.83;;;;;;;9.88;84.83;99334.19;1478165;87;21537;-79
2024/02/24 02:04:05;;;;;;;9.70;6.40;;;;;;;9.88;84.39;99335.52;1471600;88;21485;-80
2024/02/24 02:06:32;;;;;;;10.80;6.57;;;;;;;9.89;84.74;99338.98;1476510;87;21354;-79
2024/02/24 02:08:59;;;;;;;9.27;6.20;;;;;;;9.87;84.66;99340.48;1472657;88;21360;-79
2024/02/24 02:11:27;;;;;;;8.50;5.73;;;;;;;9.87;84.11;99352.38;1474241;88;21898;-80
2024/02/24 02:13:54;;;;;;;12.20;6.60;;;;;;;9.87;84.57;99340.48;1486676;88;21398;-79
2024/02/24 02:16:23;;;;;;;13.87;6.60;;;;;;;9.86;84.42;99341.45;1476673;88;21450;-80
2024/02/24 02:18:50;;;;;;;9.90;7.03;;;;;;;9.85;84.08;99334.53;1473099;87;21478;-80
2024/02/24 02:21:19;;;;;;;9.23;6.40;;;;;;;9.85;83.44;99333.21;1475746;87;21420;-79
2024/02/24 02:23:46;;;;;;;15.60;8.03;;;;;;;9.87;83.67;99329.91;1476429;88;21695;-79
2024/02/24 02:26:14;;;;;;;12.37;8.07;;;;;;;9.88;83.54;99328.91;1469936;88;21478;-79
2024/02/24 02:28:41;;;;;;;10.73;6.90;;;;;;;9.88;83.03;99324.13;1476319;87;21420;-79
2024/02/24 02:31:08;;;;;;;11.30;7.33;;;;;;;9.88;82.00;99324.94;1467492;87;22417;-79
2024/02/24 02:33:36;;;;;;;10.50;7.17;;;;;;;9.90;82.79;99328.25;1469896;88;21463;-78
2024/02/24 02:36:03;;;;;;;10.07;6.53;;;;;;;9.89;82.36;99317.83;1470771;88;22395;-75
2024/02/24 02:38:30;;;;;;;11.73;6.27;;;;;;;9.89;82.49;99321.30;1474269;88;21346;-75
2024/02/24 02:40:58;;;;;;;11.27;7.20;;;;;;;9.90;82.45;99324.28;1472335;87;21495;-75
2024/02/24 02:43:25;;;;;;;11.00;7.50;;;;;;;9.89;82.28;99321.30;1469195;88;21442;-75
2024/02/24 02:45:52;;;;;;;12.03;7.10;;;;;;;9.88;82.37;99322.80;1473032;88;21500;-75
2024/02/24 02:48:19;;;;;;;11.97;6.90;;;;;;;9.86;81.95;99322.95;1467708;87;21442;-77
2024/02/24 02:50:46;;;;;;;10.93;6.50;;;;;;;9.85;82.59;99323.96;1477311;87;21360;-77
2024/02/24 02:53:13;;;;;;;10.83;6.73;;;;;;;9.83;82.64;99323.30;1471167;87;22453;-77
2024/02/24 02:55:40;;;;;;;10.73;7.20;;;;;;;9.82;82.45;99325.63;1472320;88;21412;-77
2024/02/24 02:58:07;;;;;;;13.63;8.50;;;;;;;9.81;82.59;99330.59;1479151;88;22433;-77
2024/02/24 03:00:35;;;;;;;11.50;7.90;;;;;;;9.80;82.53;99328.11;1466789;88;21383;-77
2024/02/24 03:03:02;;;;;;;9.10;6.80;;;;;;;9.78;82.59;99324.80;1467277;88;21914;-77
2024/02/24 03:05:29;;;;;;;12.53;7.93;;;;;;;9.76;82.61;99338.20;1475940;87;21606;-77
2024/02/24 03:07:56;;;;;;;14.93;7.97;;;;;;;9.76;82.70;99336.06;1469068;88;21486;-77
2024/02/24 03:10:23;;;;;;;13.03;7.60;;;;;;;9.74;82.57;99332.25;1469390;88;21287;-78
2024/02/24 03:12:51;;;;;;;12.57;7.77;;;;;;;9.74;82.65;99332.25;1474765;88;21287;-78
2024/02/24 03:15:18;;;;;;;16.80;6.97;;;;;;;9.73;82.43;99329.80;1468415;88;21523;-78
2024/02/24 03:17:45;;;;;;;8.90;6.17;;;;;;;9.71;82.74;99336.55;1471498;88;21397;-76
2024/02/24 03:20:13;;;;;;;12.47;8.43;;;;;;;9.69;82.76;99340.66;1465817;88;21375;-76
2024/02/24 03:22:40;;;;;;;10.07;6.97;;;;;;;9.68;82.72;99344.31;1477906;87;21375;-76
2024/02/24 03:25:08;;;;;;;12.13;8.13;;;;;;;9.66;82.85;99349.44;1476128;88;21398;-75
2024/02/24 03:27:35;;;;;;;10.87;6.50;;;;;;;9.64;82.75;99339.55;1459510;88;21456;-75
2024/02/24 03:30:03;;;;;;;11.20;7.37;;;;;;;9.63;82.69;99336.56;1475797;88;21331;-75
2024/02/24 03:32:30;;;;;;;14.33;6.80;;;;;;;9.59;82.79;99330.80;1475387;87;21595;-75
2024/02/24 03:34:57;;;;;;;11.97;8.73;;;;;;;9.56;83.00;99319.25;1478344;87;21383;-75
2024/02/24 03:37:24;;;;;;;9.83;6.57;;;;;;;9.55;82.76;99328.65;1476054;88;21375;-75
2024/02/24 03:39:52;;;;;;;14.10;7.47;;;;;;;9.54;82.90;99332.30;1471512;87;22314;-75
2024/02/24 03:42:19;;;;;;;10.63;7.07;;;;;;;9.53;83.05;99334.61;1471973;88;21441;-74
2024/02/24 03:44:46;;;;;;;15.97;7.70;;;;;;;9.48;83.47;99328.50;1479362;87;21426;-74
2024/02/24 03:47:13;;;;;;;11.13;6.87;;;;;;;9.46;83.43;99339.22;1472389;88;21420;-74
2024/02/24 03:49:41;;;;;;;12.23;7.00;;;;;;;9.46;83.30;99334.44;1470445;87;21383;-77
2024/02/24 03:52:08;;;;;;;12.60;7.00;;;;;;;9.42;83.42;99340.55;1475863;88;22396;-76
2024/02/24 03:54:36;;;;;;;11.60;7.90;;;;;;;9.40;83.87;99341.21;1464767;88;21478;-77
2024/02/24 03:57:03;;;;;;;13.97;7.90;;;;;;;9.39;83.54;99336.93;1475156;87;21463;-75
2024/02/24 03:59:30;;;;;;;15.37;8.33;;;;;;;9.37;83.54;99340.22;1475773;88;21346;-75
2024/02/24 04:01:57;;;;;;;38.57;8.23;;;;;;;9.36;83.43;99347.83;1477921;87;21375;-76
2024/02/24 04:04:24;;;;;;;10.87;7.23;;;;;;;9.34;82.96;99348.48;1478000;87;21884;-76
2024/02/24 04:06:51;;;;;;;14.67;7.50;;;;;;;9.35;83.14;99351.94;1471941;88;22336;-77
2024/02/24 04:09:19;;;;;;;10.50;6.40;;;;;;;9.35;83.13;99352.79;1486680;87;21301;-78
2024/02/24 04:11:48;;;;;;;12.33;7.37;;;;;;;9.34;83.01;99351.12;1476311;87;21449;-77
2024/02/24 04:14:15;;;;;;;13.57;7.33;;;;;;;9.35;82.99;99351.94;1478081;88;21405;-77
2024/02/24 04:16:42;;;;;;;12.23;7.00;;;;;;;9.35;82.98;99350.15;1465143;87;21376;-77
2024/02/24 04:19:10;;;;;;;14.67;6.77;;;;;;;9.35;83.07;99351.47;1473794;88;22456;-78
2024/02/24 04:21:37;;;;;;;13.10;8.27;;;;;;;9.36;83.01;99354.93;1475278;88;21384;-77
2024/02/24 04:24:06;;;;;;;11.67;7.27;;;;;;;9.37;82.95;99353.42;1473342;88;21369;-77
2024/02/24 04:26:33;;;;;;;12.07;6.87;;;;;;;9.36;83.03;99353.61;1473539;87;21412;-77
2024/02/24 04:29:00;;;;;;;11.23;7.27;;;;;;;9.37;82.86;99353.42;1481983;87;21339;-77
2024/02/24 04:31:29;;;;;;;13.80;7.77;;;;;;;9.38;82.71;99352.45;1471586;87;21525;-77
2024/02/24 04:33:56;;;;;;;11.33;7.80;;;;;;;9.41;82.70;99361.36;1469903;87;21382;-78
2024/02/24 04:36:23;;;;;;;16.63;7.50;;;;;;;9.42;82.50;99357.72;1469378;88;21420;-77
2024/02/24 04:38:51;;;;;;;11.03;7.37;;;;;;;9.43;82.13;99358.04;1472838;88;21368;-76
2024/02/24 04:41:18;;;;;;;13.23;7.00;;;;;;;9.45;82.24;99365.31;1481248;88;21383;-77
2024/02/24 04:43:45;;;;;;;10.10;7.60;;;;;;;9.46;82.14;99365.62;1472938;87;21346;-77
2024/02/24 04:46:13;;;;;;;12.10;6.73;;;;;;;9.49;82.07;99370.61;1471736;87;21324;-77
2024/02/24 04:48:42;;;;;;;10.80;6.87;;;;;;;9.51;82.06;99361.69;1474006;87;21405;-77
2024/02/24 04:51:09;;;;;;;13.23;7.17;;;;;;;9.52;81.67;99375.20;1474386;87;21374;-77
2024/02/24 04:53:36;;;;;;;11.13;6.13;;;;;;;9.53;81.61;99371.59;1470125;88;21323;-76
2024/02/24 04:56:04;;;;;;;12.30;6.83;;;;;;;9.53;81.53;99375.05;1477395;87;21323;-76
2024/02/24 04:58:31;;;;;;;9.93;7.30;;;;;;;9.55;81.43;99381.00;1471387;88;21471;-76
2024/02/24 05:00:58;;;;;;;11.00;6.83;;;;;;;9.57;81.27;99385.61;1472867;87;21440;-77
2024/02/24 05:03:25;;;;;;;10.03;6.97;;;;;;;9.59;81.33;99388.09;1479284;88;21383;-76
2024/02/24 05:05:52;;;;;;;13.50;6.97;;;;;;;9.60;80.98;99389.73;1470623;88;21560;-75
2024/02/24 05:08:19;;;;;;;8.70;5.87;;;;;;;9.63;81.06;99393.36;1481790;87;21519;-75
2024/02/24 05:10:46;;;;;;;11.60;6.67;;;;;;;9.64;81.09;99393.70;1479025;87;21491;-76
2024/02/24 05:13:13;;;;;;;9.87;6.13;;;;;;;9.66;80.70;99399.63;1470128;88;21474;-77
2024/02/24 05:15:40;;;;;;;25.20;8.53;;;;;;;9.68;80.64;99405.08;1482336;88;21375;-78
2024/02/24 05:18:07;;;;;;;10.00;6.83;;;;;;;9.70;80.56;99405.75;1472304;87;21368;-78
2024/02/24 05:20:35;;;;;;;11.13;6.67;;;;;;;9.73;80.17;99413.84;1467375;88;21375;-78
2024/02/24 05:23:02;;;;;;;9.70;7.30;;;;;;;9.75;80.09;99412.34;1476652;87;21427;-78
2024/02/24 05:25:30;;;;;;;9.07;6.40;;;;;;;9.77;79.84;99416.46;1469322;87;21433;-78
2024/02/24 05:27:58;;;;;;;11.00;6.17;;;;;;;9.78;79.98;99414.17;1472751;87;22505;-77
2024/02/24 05:30:25;;;;;;;11.17;6.37;;;;;;;9.82;80.03;99415.48;1475395;88;22277;-78
2024/02/24 05:32:52;;;;;;;10.57;6.10;;;;;;;9.82;79.88;99419.44;1468514;87;21390;-78
2024/02/24 05:35:19;;;;;;;11.07;7.20;;;;;;;9.82;79.70;99420.77;1472118;87;21368;-76
2024/02/24 05:37:46;;;;;;;12.90;7.13;;;;;;;9.83;79.83;99426.36;1475610;87;21803;-78
2024/02/24 05:40:15;;;;;;;12.57;6.87;;;;;;;9.84;79.68;99427.19;1473557;87;22277;-77
2024/02/24 05:42:42;;;;;;;11.33;7.20;;;;;;;9.85;79.69;99436.28;1475125;88;22350;-78
2024/02/24 05:45:10;;;;;;;18.93;8.97;;;;;;;9.84;79.76;99442.56;1469460;88;21465;-77
2024/02/24 05:47:37;;;;;;;12.30;8.33;;;;;;;9.84;79.55;99438.61;1471061;87;21600;-77
2024/02/24 05:50:05;;;;;;;15.73;9.37;;;;;;;9.85;79.78;99446.85;1474359;88;21346;-77
2024/02/24 05:52:32;;;;;;;16.00;9.87;;;;;;;9.86;79.84;99452.95;1480683;87;21449;-77
2024/02/24 05:54:59;;;;;;;17.83;9.87;;;;;;;9.85;80.07;99455.28;1460399;88;21361;-77
2024/02/24 05:57:26;;;;;;;19.73;11.30;;;;;;;9.86;80.12;99467.49;1473027;88;22248;-79
2024/02/24 05:59:54;;;;;;;24.53;12.40;;;;;;;9.85;80.00;99482.53;1480090;88;21383;-78
2024/02/24 06:02:21;;;;;;;19.77;10.40;;;;;;;9.86;80.19;99484.67;1478358;87;21309;-78
2024/02/24 06:04:48;;;;;;;13.13;7.53;;;;;;;9.85;80.32;99490.45;1478216;87;22484;-79
2024/02/24 06:07:15;;;;;;;15.73;8.50;;;;;;;9.85;80.43;99505.49;1469395;87;21345;-79
2024/02/24 06:09:43;;;;;;;11.30;8.87;;;;;;;9.82;80.85;99511.93;1469950;87;21383;-78
2024/02/24 06:12:10;;;;;;;10.30;7.20;;;;;;;9.76;81.84;99509.95;1469061;88;22305;-78
2024/02/24 06:14:37;;;;;;;15.57;8.07;;;;;;;9.71;82.29;99511.75;1475766;87;21360;-78
2024/02/24 06:17:04;;;;;;;16.03;7.73;;;;;;;9.64;83.04;99515.23;1464120;88;21434;-78
2024/02/24 06:19:31;;;;;;;11.77;7.07;;;;;;;9.57;83.64;99519.50;1473887;87;21464;-78
2024/02/24 06:21:58;;;;;;;10.53;6.60;;;;;;;9.54;83.56;99518.52;1481202;88;22350;-79
2024/02/24 06:24:25;;;;;;;11.37;8.03;;;;;;;9.52;83.96;99512.05;1471743;87;21420;-78
2024/02/24 06:26:53;;;;;;;12.30;8.00;;;;;;;9.51;84.50;99522.80;1476009;87;22008;-78
2024/02/24 06:29:20;;;;;;;8.90;6.70;;;;;;;9.48;85.06;99523.45;1474714;88;21434;-78
2024/02/24 06:31:47;;;;;;;12.07;7.93;;;;;;;9.46;85.72;99527.23;1470401;87;22469;-78
2024/02/24 06:34:14;;;;;;;11.60;7.17;;;;;;;9.41;86.92;99529.06;1473646;87;21324;-78
2024/02/24 06:36:41;;;;;;;11.90;7.63;;;;;;;9.36;87.39;99530.53;1475578;88;21382;-78
2024/02/24 06:39:08;;;;;;;14.33;8.67;;;;;;;9.33;87.13;99523.76;1475485;87;21316;-79
2024/02/24 06:41:35;;;;;;;17.37;8.33;;;;;;;9.32;87.72;99524.76;1467365;88;22306;-78
2024/02/24 06:44:03;;;;;;;12.67;8.30;;;;;;;9.31;88.38;99527.55;1469799;88;21367;-79
2024/02/24 06:46:30;;;;;;;16.30;9.40;;;;;;;9.28;88.46;99528.69;1475724;87;22462;-79
2024/02/24 06:48:57;;;;;;;17.90;9.80;;;;;;;9.28;88.90;99529.19;1464428;88;21383;-79
2024/02/24 06:51:24;;;;;;;14.77;8.70;;;;;;;9.28;88.93;99543.21;1481000;87;21294;-79
2024/02/24 06:53:54;;;;;;;12.57;8.47;;;;;;;9.30;88.63;99554.45;1469744;87;22425;-78
2024/02/24 06:56:20;;;;;;;17.60;10.90;;;;;;;9.32;88.54;99555.59;1548297;87;21353;-78
2024/02/24 06:58:48;;;;;;;22.83;12.43;;;;;;;9.34;88.40;99560.23;1472957;87;21403;-78
2024/02/24 07:01:23;;;;;;;19.43;11.73;;;;;;;9.36;88.32;99562.22;1475746;87;21413;-79
2024/02/24 07:03:50;;;;;;;17.83;11.53;;;;;;;9.40;88.51;99567.00;1472468;87;21553;-79
2024/02/24 07:06:18;;;;;;;15.23;9.63;;;;;;;9.42;88.87;99571.64;1476487;87;21552;-79
2024/02/24 07:08:46;;;;;;;16.77;10.70;;;;;;;9.45;89.62;99571.32;1474192;87;21391;-79
2024/02/24 07:11:13;;;;;;;27.50;11.30;;;;;;;9.46;90.38;99572.14;1472571;88;21368;-77
2024/02/24 07:13:40;;;;;;;19.50;11.27;;;;;;;9.46;91.12;99564.22;1475397;87;21331;-79
2024/02/24 07:16:08;;;;;;;17.60;10.83;;;;;;;9.45;91.58;99567.36;1478613;87;21488;-79
2024/02/24 07:18:38;;;;;;;19.87;12.17;;;;;;;9.46;91.13;99578.74;1471409;88;21383;-79
2024/02/24 07:21:06;;;;;;;27.13;14.37;;;;;;;9.47;91.24;99574.63;1467750;88;22422;-79
2024/02/24 07:23:33;;;;;;;21.97;13.93;;;;;;;9.48;90.99;99574.13;1475677;87;22061;-79
2024/02/24 07:26:02;;;;;;;24.37;14.37;;;;;;;9.49;90.83;99580.59;1476079;87;21448;-78
2024/02/24 07:28:31;;;;;;;24.60;15.10;;;;;;;9.54;90.81;99584.55;1479370;87;21346;-79
2024/02/24 07:30:58;;;;;;;22.27;14.00;;;;;;;9.57;91.04;99585.55;1470238;88;21353;-79
2024/02/24 07:33:25;;;;;;;30.73;17.10;;;;;;;9.60;91.18;99590.50;1471128;87;21368;-79
2024/02/24 07:35:52;;;;;;;28.53;15.37;;;;;;;9.64;91.39;99598.46;1475775;87;21441;-79
2024/02/24 07:38:19;;;;;;;22.87;13.23;;;;;;;9.65;91.22;99596.96;1475293;87;21310;-78
2024/02/24 07:40:47;;;;;;;22.93;12.73;;;;;;;9.70;91.53;99596.48;1487591;87;21819;-79
2024/02/24 07:43:15;;;;;;;24.10;13.67;;;;;;;9.75;91.51;99598.63;1481248;88;21287;-79
2024/02/24 07:45:43;;;;;;;23.07;11.10;;;;;;;9.79;91.62;99595.50;1482199;87;21508;-79
2024/02/24 07:48:11;;;;;;;20.17;10.13;;;;;;;9.83;91.75;99592.86;1468246;87;21367;-79
2024/02/24 07:50:38;;;;;;;16.47;10.00;;;;;;;9.88;91.78;99593.70;1477155;88;21368;-79
2024/02/24 07:53:07;;;;;;;23.13;13.17;;;;;;;9.93;92.08;99589.58;1469813;87;21478;-79
2024/02/24 07:55:34;;;;;;;22.67;12.83;;;;;;;9.99;91.91;99601.81;1474825;88;21361;-77
2024/02/24 07:58:01;;;;;;;21.97;13.37;;;;;;;10.05;91.89;99607.77;1469300;87;21375;-80
2024/02/24 08:00:28;;;;;;;17.53;11.43;;;;;;;10.11;91.84;99605.28;1484459;87;22269;-79
2024/02/24 08:02:55;;;;;;;16.10;7.40;;;;;;;10.16;92.17;99598.19;1473941;87;21537;-78
2024/02/24 08:05:22;;;;;;;25.77;14.57;;;;;;;10.22;91.97;99598.84;1472340;88;21353;-79
2024/02/24 08:07:49;;;;;;;20.60;13.20;;;;;;;10.30;91.72;99600.20;1472296;87;21383;-79
2024/02/24 08:10:16;;;;;;;22.17;12.57;;;;;;;10.37;91.30;99610.44;1472834;87;21427;-78
2024/02/24 08:12:43;;;;;;;19.23;10.67;;;;;;;10.45;91.27;99620.20;1478948;87;22305;-78
2024/02/24 08:15:11;;;;;;;14.13;9.23;;;;;;;10.51;91.23;99614.23;1475871;87;21376;-79
2024/02/24 08:17:38;;;;;;;12.07;7.73;;;;;;;10.59;91.12;99610.77;1473989;87;22825;-79
2024/02/24 08:20:08;;;;;;;15.10;9.73;;;;;;;10.68;91.22;99609.75;1486598;87;21456;-78
2024/02/24 08:22:35;;;;;;;15.90;10.27;;;;;;;10.76;91.46;99607.09;1470303;88;21397;-79
2024/02/24 08:25:02;;;;;;;12.17;9.33;;;;;;;10.86;91.29;99612.69;1476225;87;21391;-79
2024/02/24 08:27:29;;;;;;;17.30;10.23;;;;;;;10.95;91.13;99610.34;1480978;87;21405;-78
2024/02/24 08:29:57;;;;;;;20.47;10.27;;;;;;;11.03;91.03;99615.12;1476547;87;21368;-79
2024/02/24 08:32:24;;;;;;;18.57;12.83;;;;;;;11.12;90.86;99613.77;1471211;87;21577;-78
2024/02/24 08:34:53;;;;;;;15.17;9.03;;;;;;;11.20;90.50;99623.02;1473671;87;21599;-79
2024/02/24 08:37:20;;;;;;;14.40;8.60;;;;;;;11.29;90.12;99616.18;1472644;87;21544;-79
2024/02/24 08:39:47;;;;;;;11.70;7.70;;;;;;;11.40;89.78;99608.87;1472324;88;21360;-79
2024/02/24 08:42:16;;;;;;;16.97;6.20;;;;;;;11.51;89.45;99611.13;1479804;87;22557;-79
2024/02/24 08:44:43;;;;;;;9.73;5.73;;;;;;;11.62;88.56;99610.71;1472800;87;21389;-78
2024/02/24 08:47:10;;;;;;;12.40;7.13;;;;;;;11.73;87.94;99620.92;1470943;87;21635;-78
2024/02/24 08:49:37;;;;;;;11.13;6.67;;;;;;;11.86;87.53;99618.25;1479031;88;21390;-79
2024/02/24 08:52:05;;;;;;;10.23;7.13;;;;;;;12.00;87.11;99621.47;1473287;87;21382;-77
2024/02/24 08:54:33;;;;;;;10.13;6.97;;;;;;;12.11;86.28;99627.70;1474103;87;21398;-79
2024/02/24 08:57:00;;;;;;;13.63;6.43;;;;;;;12.21;85.49;99630.61;1473986;87;22409;-78
2024/02/24 08:59:27;;;;;;;9.77;6.03;;;;;;;12.27;84.33;99626.73;1470254;88;21375;-79
2024/02/24 09:01:54;;;;;;;14.80;6.80;;;;;;;12.34;84.11;99619.72;1470738;87;21383;-78
2024/02/24 09:04:21;;;;;;;9.93;5.20;;;;;;;12.42;82.58;99624.12;1465199;87;21360;-79
2024/02/24 09:06:48;;;;;;;9.13;5.10;;;;;;;12.45;82.09;99629.06;1468249;87;21434;-79
2024/02/24 09:09:16;;;;;;;8.67;5.47;;;;;;;12.49;81.88;99631.70;1475548;87;21323;-79
2024/02/24 09:11:46;;;;;;;8.00;5.20;;;;;;;12.54;81.24;99636.45;1477213;88;21323;-78
2024/02/24 09:14:13;;;;;;;8.27;5.27;;;;;;;12.56;81.01;99636.59;1476924;87;22611;-79
2024/02/24 09:16:40;;;;;;;9.53;6.07;;;;;;;12.55;80.02;99636.29;1473056;88;22395;-78
2024/02/24 09:19:07;;;;;;;7.87;5.63;;;;;;;12.56;79.38;99640.58;1472245;88;21368;-79
2024/02/24 09:21:34;;;;;;;8.53;4.27;;;;;;;12.59;79.94;99645.53;1474503;88;21442;-79
2024/02/24 09:24:01;;;;;;;7.97;4.83;;;;;;;12.61;79.06;99652.81;1475449;87;22698;-78
2024/02/24 09:26:29;;;;;;;8.17;4.47;;;;;;;12.65;79.24;99650.63;1474166;88;21368;-78
2024/02/24 09:28:56;;;;;;;8.00;4.60;;;;;;;12.68;79.09;99653.42;1474028;88;21412;-79
2024/02/24 09:31:27;;;;;;;6.20;4.60;;;;;;;12.71;78.98;99651.73;1471080;88;21382;-79
2024/02/24 09:33:55;;;;;;;7.30;4.33;;;;;;;12.71;78.64;99654.39;1467943;88;21532;-78
2024/02/24 09:36:21;;;;;;;9.20;4.93;;;;;;;12.70;78.39;99651.42;1473375;88;21539;-77
2024/02/24 09:38:48;;;;;;;9.10;5.33;;;;;;;12.68;77.86;99656.08;1469091;87;22285;-78
2024/02/24 09:41:20;;;;;;;7.60;4.90;;;;;;;12.67;77.23;99663.73;1477256;87;21463;-78
2024/02/24 09:43:46;;;;;;;6.37;4.53;;;;;;;12.66;77.54;99664.23;1471580;87;21799;-78
2024/02/24 09:46:16;;;;;;;5.83;4.63;;;;;;;12.64;77.50;99671.04;1467692;87;21434;-77
2024/02/24 09:48:46;;;;;;;7.17;5.03;;;;;;;12.64;77.86;99668.39;1397557;88;21399;-78
2024/02/24 09:51:13;;;;;;;7.47;4.43;;;;;;;12.62;77.96;99669.05;1396005;88;22116;-78
2024/02/24 09:53:40;;;;;;;9.20;4.60;;;;;;;12.61;77.73;99671.40;1398763;88;21405;-78
2024/02/24 09:56:09;;;;;;;7.00;4.37;;;;;;;12.59;77.00;99671.25;1398633;87;21339;-78
2024/02/24 09:58:37;;;;;;;8.60;4.93;;;;;;;12.59;76.90;99678.70;1403001;87;21361;-78
2024/02/24 10:01:04;;;;;;;7.57;4.33;;;;;;;12.59;77.22;99682.69;1398197;87;21241;-77
2024/02/24 10:03:32;;;;;;;9.67;4.73;;;;;;;12.58;77.28;99686.87;1398736;87;21257;-78
2024/02/24 10:05:59;;;;;;;9.57;5.27;;;;;;;12.58;77.31;99695.65;1403975;88;21414;-79
2024/02/24 10:08:26;;;;;;;12.33;6.20;;;;;;;12.55;77.11;99694.68;1398734;88;22167;-79
2024/02/24 10:10:54;;;;;;;12.23;6.87;;;;;;;12.54;77.28;99693.02;1398606;88;21191;-78
2024/02/24 10:13:21;;;;;;;15.43;7.23;;;;;;;12.54;77.33;99696.99;1403547;88;21353;-78
2024/02/24 10:15:48;;;;;;;12.17;6.83;;;;;;;12.55;77.37;99696.01;1399151;88;21250;-77
2024/02/24 10:18:18;;;;;;;11.30;6.83;;;;;;;12.56;77.49;99692.34;1392171;89;21264;-77
2024/02/24 10:20:45;;;;;;;11.30;5.87;;;;;;;12.57;77.41;99700.65;1395849;87;21184;-77
2024/02/24 10:23:13;;;;;;;8.87;5.10;;;;;;;12.61;77.24;99691.82;1398720;87;21184;-78
2024/02/24 10:25:40;;;;;;;12.17;5.83;;;;;;;12.67;77.60;99683.13;1398538;88;21258;-78
2024/02/24 10:28:08;;;;;;;19.23;7.13;;;;;;;12.73;77.30;99688.23;1398491;87;21404;-78
2024/02/24 10:30:35;;;;;;;8.83;5.23;;;;;;;12.80;77.43;99690.48;1397717;89;22138;-77
2024/02/24 10:33:04;;;;;;;9.27;5.70;;;;;;;12.87;77.35;99686.11;1398768;87;21243;-76
2024/02/24 10:35:32;;;;;;;8.07;4.60;;;;;;;12.93;77.06;99694.67;1396031;87;22058;-76
2024/02/24 10:37:59;;;;;;;9.53;5.33;;;;;;;13.00;76.73;99694.77;1403957;87;21360;-77
2024/02/24 10:40:26;;;;;;;8.80;4.27;;;;;;;13.08;76.85;99695.52;1559168;87;21191;-78
2024/02/24 10:42:54;;;;;;;7.63;4.30;;;;;;;13.17;76.81;99700.24;1398649;87;21331;-78
2024/02/24 10:45:22;;;;;;;9.00;3.80;;;;;;;13.25;76.09;99705.98;1398195;87;21258;-79
2024/02/24 10:47:49;;;;;;;6.53;4.67;;;;;;;13.34;76.13;99706.23;1403627;87;21264;-76
2024/02/24 10:50:16;;;;;;;6.97;4.07;;;;;;;13.41;76.16;99705.03;1398839;87;21228;-76
2024/02/24 10:52:44;;;;;;;13.53;5.10;;;;;;;13.47;75.98;99713.08;1391782;89;22189;-77
2024/02/24 10:55:12;;;;;;;10.60;4.77;;;;;;;13.57;75.82;99709.31;1397126;89;21250;-78
2024/02/24 10:57:40;;;;;;;10.23;4.40;;;;;;;13.63;75.60;99707.24;1397254;87;21302;-77
2024/02/24 11:00:34;;;;;;;9.30;5.63;;;;;;;13.68;75.63;99710.18;1398415;87;21176;-77
2024/02/24 11:03:07;;;;;;;7.23;5.17;;;;;;;13.68;75.06;99714.16;1451584;87;21486;-77
2024/02/24 11:05:34;;;;;;;9.43;5.17;;;;;;;13.68;74.99;99708.84;1466495;88;21608;-77
2024/02/24 11:08:02;;;;;;;9.50;5.67;;;;;;;13.69;75.11;99710.48;1466977;88;21493;-77
2024/02/24 11:10:35;;;;;;;10.13;5.30;;;;;;;13.68;74.93;99711.51;1475097;88;21396;-76
2024/02/24 11:13:02;;;;;;;15.57;5.60;;;;;;;13.66;74.64;99714.84;1467853;88;21519;-77
2024/02/24 11:15:30;;;;;;;11.57;6.33;;;;;;;13.64;74.75;99711.57;1476200;88;21323;-78
2024/02/24 11:17:58;;;;;;;11.37;6.00;;;;;;;13.62;74.87;99713.58;1556638;88;21479;-77
2024/02/24 11:20:42;;;;;;;18.33;7.27;;;;;;;13.64;75.14;99715.56;1397583;87;22278;-78
2024/02/24 11:23:24;;;;;;;10.93;5.87;;;;;;;13.64;75.08;99718.22;1559164;87;21199;-81
2024/02/24 11:26:21;;;;;;;13.20;6.03;;;;;;;13.63;74.86;99721.36;1401366;88;22094;-81
2024/02/24 11:29:02;;;;;;;8.27;5.43;;;;;;;13.60;75.42;99724.89;1435187;87;22167;-78
2024/02/24 11:31:31;;;;;;;;;;;;;;;13.61;75.97;99726.53;1554223;87;22101;-79
2024/02/24 11:34:08;;;;;;;9.37;4.97;;;;;;;13.58;74.54;99728.23;1472964;87;20318;-79